Time;durP1;ratioP1;P1;durP2;ratioP2;P2;SDS_P1;SDS_P2;PMS_P1;PMS_P2;Temp;Humidity;BMP_temperature;BMP_pressure;BME280_temperature;BME280_humidity;BME280_pressure;Samples;Min_cycle;Max_cycle;Signal;HPM_P1;HPM_P2
2023/01/22 00:02:17;;;;;;;26.75;11.63;;;;;;;-142.75;100.00;80316.09;5034986;28;20109;-64
2023/01/22 00:04:42;;;;;;;26.00;12.30;;;;;;;-142.75;100.00;80312.16;5029532;28;20025;-65
2023/01/22 00:07:08;;;;;;;19.15;9.95;;;;;;;-142.75;100.00;80316.09;5027613;28;21361;-62
2023/01/22 00:09:33;;;;;;;24.67;11.57;;;;;;;-142.75;100.00;80304.25;5036491;28;20123;-60
2023/01/22 00:11:58;;;;;;;24.40;11.45;;;;;;;-142.75;100.00;80310.16;5023730;28;20060;-62
2023/01/22 00:14:24;;;;;;;26.42;12.02;;;;;;;-142.75;100.00;80300.31;5034030;28;20100;-64
2023/01/22 00:16:49;;;;;;;25.27;10.85;;;;;;;-142.75;100.00;80320.03;5027566;28;20025;-59
2023/01/22 00:19:14;;;;;;;25.52;12.50;;;;;;;-142.75;100.00;80322.00;5025253;28;20115;-66
2023/01/22 00:21:40;;;;;;;27.75;12.63;;;;;;;-142.75;100.00;80331.84;5040428;28;20020;-67
2023/01/22 00:24:05;;;;;;;22.98;11.38;;;;;;;-142.75;100.00;80312.16;5017280;28;20033;-69
2023/01/22 00:26:31;;;;;;;23.80;11.18;;;;;;;-142.75;100.00;80306.22;5020187;28;20030;-68
2023/01/22 00:28:56;;;;;;;27.08;12.57;;;;;;;-142.75;100.00;80310.16;5022739;28;20037;-67
2023/01/22 00:31:22;;;;;;;27.33;12.52;;;;;;;-142.75;100.00;80306.22;5029196;28;20034;-65
2023/01/22 00:33:47;;;;;;;27.27;11.88;;;;;;;-142.75;100.00;80308.19;5014088;28;20094;-67
2023/01/22 00:36:16;;;;;;;24.35;12.32;;;;;;;-142.75;100.00;80288.50;5030612;28;20104;-67
2023/01/22 00:38:41;;;;;;;28.20;12.73;;;;;;;-142.75;100.00;80288.50;5031849;28;20031;-66
2023/01/22 00:41:08;;;;;;;29.33;12.98;;;;;;;-142.75;100.00;80266.81;5017157;28;20025;-64
2023/01/22 00:43:37;;;;;;;27.83;12.13;;;;;;;-142.75;100.00;80249.09;5024554;28;20056;-66
2023/01/22 00:46:03;;;;;;;28.63;12.87;;;;;;;-142.75;100.00;80255.00;5005210;28;20025;-66
2023/01/22 00:48:28;;;;;;;31.05;12.82;;;;;;;-142.75;100.00;80249.09;5014056;28;20457;-66
2023/01/22 00:50:53;;;;;;;24.77;12.20;;;;;;;-142.75;100.00;80239.25;5013883;28;20539;-64
2023/01/22 00:53:19;;;;;;;28.60;13.50;;;;;;;-142.75;100.00;80241.22;4994911;28;20175;-67
2023/01/22 00:55:56;;;;;;;26.70;13.05;;;;;;;-142.75;100.00;80219.53;5012304;28;20037;-65
2023/01/22 00:58:21;;;;;;;26.47;12.90;;;;;;;-142.75;100.00;80211.66;5012508;28;20527;-65
2023/01/22 01:00:47;;;;;;;27.08;13.25;;;;;;;-142.75;100.00;80209.69;4997154;28;20035;-66
2023/01/22 01:03:25;;;;;;;27.17;12.27;;;;;;;-142.75;100.00;80215.59;5016266;28;20059;-64
2023/01/22 01:05:54;;;;;;;25.30;12.00;;;;;;;-142.75;100.00;80209.69;4995281;28;20029;-65
2023/01/22 01:08:20;;;;;;;24.63;12.67;;;;;;;-142.75;100.00;80197.88;4994890;28;20029;-66
2023/01/22 01:10:45;;;;;;;24.33;11.98;;;;;;;-142.75;100.00;80197.88;4994175;28;20036;-64
2023/01/22 01:13:11;;;;;;;27.15;12.77;;;;;;;-142.75;100.00;80191.97;5017139;28;20025;-65
2023/01/22 01:15:37;;;;;;;25.17;11.85;;;;;;;-142.75;100.00;80174.22;5019736;28;20025;-64
2023/01/22 01:18:02;;;;;;;28.85;12.98;;;;;;;-142.75;100.00;80150.59;5018928;28;20083;-64
2023/01/22 01:20:28;;;;;;;28.38;13.07;;;;;;;-142.75;100.00;80134.81;5019533;28;20040;-66
2023/01/22 01:22:53;;;;;;;23.55;12.15;;;;;;;-142.75;100.00;80123.00;5019530;28;20025;-64
2023/01/22 01:25:18;;;;;;;22.58;10.70;;;;;;;-142.75;100.00;80126.94;5019353;28;20136;-64
2023/01/22 01:27:44;;;;;;;23.75;11.82;;;;;;;-142.75;100.00;80134.81;5001185;28;20031;-65
2023/01/22 01:30:09;;;;;;;25.23;11.57;;;;;;;-142.75;100.00;80132.84;5019425;28;20029;-64
2023/01/22 01:32:35;;;;;;;29.40;12.93;;;;;;;-142.75;100.00;80101.31;5001730;28;20031;-63
2023/01/22 01:35:00;;;;;;;23.67;11.13;;;;;;;-142.75;100.00;80115.13;5019363;28;20024;-64
2023/01/22 01:37:25;;;;;;;24.23;11.23;;;;;;;-142.75;100.00;80115.13;5000941;28;20029;-65
2023/01/22 01:39:54;;;;;;;20.40;11.10;;;;;;;-142.75;100.00;80079.66;5019499;28;20786;-65
2023/01/22 01:42:24;;;;;;;23.37;11.13;;;;;;;-142.75;100.00;80073.75;5019131;28;20055;-65
2023/01/22 01:45:18;;;;;;;23.57;11.83;;;;;;;-142.75;100.00;80063.88;5019320;28;20081;-64
2023/01/22 01:47:47;;;;;;;22.60;10.53;;;;;;;-142.75;100.00;80056.00;5018417;28;20056;-64
2023/01/22 01:50:12;;;;;;;26.00;11.33;;;;;;;-142.75;100.00;80048.13;5019120;28;20487;-65
2023/01/22 01:52:38;;;;;;;21.42;9.82;;;;;;;-142.75;100.00;80040.25;5019091;28;20025;-64
2023/01/22 01:55:05;;;;;;;21.42;11.18;;;;;;;-142.75;100.00;80040.25;5019011;28;20030;-65
2023/01/22 01:57:33;;;;;;;23.23;10.90;;;;;;;-142.75;100.00;80040.25;5000696;28;20483;-64
2023/01/22 02:00:03;;;;;;;21.50;10.63;;;;;;;-142.75;100.00;80052.06;5001423;28;20017;-65
2023/01/22 02:02:28;;;;;;;20.20;10.03;;;;;;;-142.75;100.00;80032.38;5001264;28;20726;-65
2023/01/22 02:04:54;;;;;;;21.52;10.90;;;;;;;-142.75;100.00;80042.22;5019504;28;20026;-64
2023/01/22 02:07:19;;;;;;;21.38;10.05;;;;;;;-142.75;100.00;80032.38;5018237;28;20076;-64
2023/01/22 02:09:45;;;;;;;23.42;10.35;;;;;;;-142.75;100.00;80061.91;5019136;28;20689;-65
2023/01/22 02:12:11;;;;;;;22.52;9.48;;;;;;;-142.75;100.00;80044.19;5002826;28;20079;-64
2023/01/22 02:14:39;;;;;;;20.10;9.43;;;;;;;-142.75;100.00;80042.22;5022927;28;20009;-65
2023/01/22 02:17:12;;;;;;;18.30;9.70;;;;;;;-142.75;100.00;80036.31;5022097;28;20111;-65
2023/01/22 02:19:39;;;;;;;20.27;9.43;;;;;;;-142.75;100.00;80038.28;5022804;28;20423;-65
2023/01/22 02:22:19;;;;;;;20.77;9.33;;;;;;;-142.75;100.00;80012.66;5022846;28;20025;-66
2023/01/22 02:24:45;;;;;;;15.40;9.07;;;;;;;-142.75;100.00;80044.19;5004646;28;20025;-65
2023/01/22 02:27:10;;;;;;;16.33;8.98;;;;;;;-142.75;100.00;80008.72;5004043;28;20027;-65
2023/01/22 02:29:36;;;;;;;16.50;8.82;;;;;;;-142.75;100.00;80000.84;5022864;28;20801;-65
2023/01/22 02:32:02;;;;;;;16.85;8.50;;;;;;;-142.75;100.00;80012.66;5004532;28;20443;-66
2023/01/22 02:34:27;;;;;;;17.63;9.07;;;;;;;-142.75;100.00;80016.59;5004837;28;20104;-64
2023/01/22 02:36:52;;;;;;;13.68;7.72;;;;;;;-142.75;100.00;79996.91;5022145;28;20487;-65
2023/01/22 02:39:18;;;;;;;16.63;9.05;;;;;;;-142.75;100.00;79981.16;5022407;28;20060;-64
2023/01/22 02:41:44;;;;;;;14.63;7.55;;;;;;;-142.75;100.00;79967.34;5004681;28;20017;-64
2023/01/22 02:44:09;;;;;;;13.32;7.82;;;;;;;-142.75;100.00;79969.31;5022284;28;20074;-65
2023/01/22 02:46:34;;;;;;;25.38;9.07;;;;;;;-142.75;100.00;79965.38;5003874;28;20068;-63
2023/01/22 02:49:00;;;;;;;12.48;7.35;;;;;;;-142.75;100.00;79969.31;5021932;28;20029;-64
2023/01/22 02:51:25;;;;;;;16.38;8.15;;;;;;;-142.75;100.00;79981.16;5004468;28;20124;-66
2023/01/22 02:53:51;;;;;;;16.73;7.57;;;;;;;-142.75;100.00;79977.19;5022776;28;20127;-65
2023/01/22 02:56:17;;;;;;;;;;;;;;;-142.75;100.00;79969.31;5021130;28;20033;-66
2023/01/22 02:58:42;;;;;;;12.13;7.07;;;;;;;-142.75;100.00;79996.91;5003932;28;19928;-65
2023/01/22 03:01:19;;;;;;;13.50;7.40;;;;;;;-142.75;100.00;79965.38;5004064;28;20040;-66
2023/01/22 03:04:10;;;;;;;14.38;7.47;;;;;;;-142.75;100.00;79955.53;5022047;28;20030;-65
2023/01/22 03:06:41;;;;;;;12.30;7.10;;;;;;;-142.75;100.00;79955.53;5021435;28;20064;-66
2023/01/22 03:09:08;;;;;;;12.10;7.00;;;;;;;-142.75;100.00;79973.25;5021889;28;20478;-64
2023/01/22 03:11:35;;;;;;;14.63;7.37;;;;;;;-142.75;100.00;79965.38;5021460;28;20029;-65
2023/01/22 03:22:14;;;;;;;12.07;6.37;;;;;;;-142.75;100.00;79951.59;5041240;28;20044;-64
2023/01/22 03:24:40;;;;;;;14.20;7.07;;;;;;;-142.75;100.00;79945.69;5040807;28;20120;-64
2023/01/22 03:27:05;;;;;;;12.63;7.18;;;;;;;-142.75;100.00;79933.84;5040771;28;20032;-66
2023/01/22 03:29:31;;;;;;;17.70;8.10;;;;;;;-142.75;100.00;79939.78;5029916;28;20021;-64
2023/01/22 03:31:56;;;;;;;12.75;7.28;;;;;;;-142.75;100.00;79941.75;5021403;28;20022;-63
2023/01/22 03:34:23;;;;;;;13.60;6.97;;;;;;;-142.75;100.00;79947.66;5021397;28;20033;-63
2023/01/22 03:36:49;;;;;;;10.07;6.40;;;;;;;-142.75;100.00;79929.91;5003509;28;20509;-65
2023/01/22 03:39:14;;;;;;;13.48;6.80;;;;;;;-142.75;100.00;79929.91;5021210;28;20017;-65
2023/01/22 03:41:40;;;;;;;12.88;7.03;;;;;;;-142.75;100.00;79937.81;5021300;28;20726;-64
2023/01/22 03:44:10;;;;;;;14.95;6.90;;;;;;;-142.75;100.00;79949.63;5021217;28;20029;-65
2023/01/22 03:46:35;;;;;;;10.20;6.30;;;;;;;-142.75;100.00;79941.75;5020753;28;20208;-64
2023/01/22 03:49:01;;;;;;;10.70;6.20;;;;;;;-142.75;100.00;79935.84;5003318;28;20028;-65
2023/01/22 03:51:26;;;;;;;11.10;6.45;;;;;;;-142.75;100.00;79939.78;5003733;28;20051;-64
2023/01/22 03:53:52;;;;;;;14.13;7.60;;;;;;;-142.75;100.00;79937.81;5003934;28;20086;-65
2023/01/22 03:56:20;;;;;;;12.95;7.05;;;;;;;-142.75;100.00;79929.91;5021211;28;20113;-65
2023/01/22 03:58:46;;;;;;;14.53;6.30;;;;;;;-142.75;100.00;79937.81;5020945;28;20036;-66
2023/01/22 04:01:13;;;;;;;;;;;;;;;-142.75;100.00;79920.06;5021217;28;20614;-65
2023/01/22 04:03:38;;;;;;;9.50;5.03;;;;;;;-142.75;100.00;79925.97;5020996;28;20507;-65
2023/01/22 04:06:05;;;;;;;12.70;6.70;;;;;;;-142.75;100.00;79924.00;5020520;28;20026;-66
2023/01/22 04:08:32;;;;;;;13.07;6.77;;;;;;;-142.75;100.00;79925.97;5020073;28;20926;-65
2023/01/22 04:10:59;;;;;;;12.93;6.83;;;;;;;-142.75;100.00;79925.97;5020562;28;20030;-64
2023/01/22 04:13:26;;;;;;;15.77;6.93;;;;;;;-142.75;100.00;79939.78;5021007;28;20736;-63
2023/01/22 04:15:52;;;;;;;11.07;6.27;;;;;;;-142.75;100.00;79929.91;5020111;28;20867;-65
2023/01/22 04:18:18;;;;;;;16.27;7.50;;;;;;;-142.75;100.00;79931.88;5019839;28;20155;-62
2023/01/22 04:20:44;;;;;;;15.02;6.70;;;;;;;-142.75;100.00;79939.78;5020646;28;20383;-65
2023/01/22 04:23:09;;;;;;;;;;;;;;;-142.75;100.00;79937.81;5020711;28;20332;-64
2023/01/22 04:25:35;;;;;;;12.53;6.47;;;;;;;-142.75;100.00;79943.72;5020604;28;19924;-64
2023/01/22 04:28:00;;;;;;;13.73;6.68;;;;;;;-142.75;100.00;79937.81;5002049;28;20021;-65
2023/01/22 04:30:26;;;;;;;13.50;6.93;;;;;;;-142.75;100.00;79929.91;5002719;28;20064;-65
2023/01/22 04:32:51;;;;;;;10.90;6.07;;;;;;;-142.75;100.00;79924.00;5020598;28;20084;-65
2023/01/22 04:35:16;;;;;;;14.05;7.10;;;;;;;-142.75;100.00;79945.69;5001606;28;20032;-64
2023/01/22 04:37:42;;;;;;;13.85;7.57;;;;;;;-142.75;100.00;79937.81;5019649;28;20017;-66
2023/01/22 04:40:08;;;;;;;16.05;7.65;;;;;;;-142.75;100.00;79914.16;5020329;28;20132;-65
2023/01/22 04:42:34;;;;;;;13.97;7.10;;;;;;;-142.75;100.00;79922.03;5002637;28;20021;-63
2023/01/22 04:44:59;;;;;;;11.82;6.10;;;;;;;-142.75;100.00;79931.88;5019927;28;20471;-65
2023/01/22 04:47:24;;;;;;;9.30;5.53;;;;;;;-142.75;100.00;79943.72;5019387;28;20065;-63
2023/01/22 04:49:49;;;;;;;12.27;6.07;;;;;;;-142.75;100.00;79941.75;5020563;28;20017;-64
2023/01/22 04:52:15;;;;;;;10.85;6.13;;;;;;;-142.75;100.00;79925.97;5002198;28;20025;-64
2023/01/22 04:54:40;;;;;;;10.48;5.20;;;;;;;-142.75;100.00;79939.78;5019980;28;20116;-64
2023/01/22 04:57:06;;;;;;;10.63;5.75;;;;;;;-142.75;100.00;79931.88;5019076;28;20035;-65
2023/01/22 04:59:31;;;;;;;11.50;6.65;;;;;;;-142.75;100.00;79927.94;5019985;28;20047;-65
2023/01/22 05:01:56;;;;;;;11.43;6.00;;;;;;;-142.75;100.00;79949.63;5019530;28;20026;-62
2023/01/22 05:04:22;;;;;;;11.00;5.97;;;;;;;-142.75;100.00;79933.84;5019889;28;20072;-62
2023/01/22 05:06:48;;;;;;;11.35;6.78;;;;;;;-142.75;100.00;79941.75;5001654;28;20029;-64
2023/01/22 05:09:14;;;;;;;13.55;7.43;;;;;;;-142.75;100.00;79937.81;5019821;28;20026;-65
2023/01/22 05:11:39;;;;;;;11.27;6.45;;;;;;;-142.75;100.00;79939.78;5016495;28;20058;-64
2023/01/22 05:14:05;;;;;;;12.35;6.50;;;;;;;-142.75;100.00;79941.75;5023907;28;20470;-66
2023/01/22 05:16:30;;;;;;;11.02;6.45;;;;;;;-142.75;100.00;79916.13;5025015;28;20492;-60
2023/01/22 05:18:55;;;;;;;11.13;6.35;;;;;;;-142.75;100.00;79918.09;5014806;28;20140;-59
2023/01/22 05:21:21;;;;;;;10.98;5.90;;;;;;;-142.75;100.00;79914.16;5039214;28;20040;-62
2023/01/22 05:23:46;;;;;;;11.95;6.97;;;;;;;-142.75;100.00;79920.06;5039554;28;20600;-61
2023/01/22 05:26:12;;;;;;;10.90;6.32;;;;;;;-142.75;100.00;79898.41;5039135;28;20032;-64
2023/01/22 05:28:37;;;;;;;11.10;6.35;;;;;;;-142.75;100.00;79886.56;5020446;28;20029;-64
2023/01/22 05:31:02;;;;;;;10.40;6.30;;;;;;;-142.75;100.00;79886.56;5038852;28;20086;-64
2023/01/22 05:33:28;;;;;;;12.70;5.93;;;;;;;-142.75;100.00;79890.50;5039354;28;20064;-64
2023/01/22 05:35:58;;;;;;;12.15;6.28;;;;;;;-142.75;100.00;79890.50;5021728;28;20025;-64
2023/01/22 05:38:24;;;;;;;11.47;6.07;;;;;;;-142.75;100.00;79884.59;5038429;28;20792;-65
2023/01/22 05:40:50;;;;;;;13.38;6.47;;;;;;;-142.75;100.00;79882.63;5039168;28;20025;-65
2023/01/22 05:43:15;;;;;;;16.35;6.85;;;;;;;-142.75;100.00;79878.69;5021431;28;20035;-65
2023/01/22 05:45:40;;;;;;;10.10;5.32;;;;;;;-142.75;100.00;79874.75;5021317;28;20649;-64
2023/01/22 05:48:06;;;;;;;11.55;6.03;;;;;;;-142.75;100.00;79886.56;5038048;28;20059;-65
2023/01/22 05:50:31;;;;;;;12.90;6.40;;;;;;;-142.75;100.00;79886.56;5017836;28;20025;-64
2023/01/22 05:52:56;;;;;;;11.52;6.40;;;;;;;-142.75;100.00;79880.66;5034018;28;20035;-62
2023/01/22 05:55:22;;;;;;;11.77;6.10;;;;;;;-142.75;100.00;79916.13;5021032;28;20025;-64
2023/01/22 05:57:48;;;;;;;10.60;5.90;;;;;;;-142.75;100.00;79943.72;5038289;28;20021;-64
2023/01/22 06:00:14;;;;;;;13.02;6.55;;;;;;;-142.75;100.00;79959.47;5020817;28;20478;-65
2023/01/22 06:02:39;;;;;;;10.75;6.25;;;;;;;-142.75;100.00;79941.75;5021013;28;20147;-65
2023/01/22 06:05:05;;;;;;;10.38;5.88;;;;;;;-142.75;100.00;79922.03;5038941;28;20028;-65
2023/01/22 06:07:30;;;;;;;11.38;5.75;;;;;;;-142.75;100.00;79939.78;5038067;28;20021;-66
2023/01/22 06:09:56;;;;;;;13.30;5.53;;;;;;;-142.75;100.00;79935.84;5038982;28;20025;-63
2023/01/22 06:12:22;;;;;;;11.88;5.50;;;;;;;-142.75;100.00;79937.81;5038315;28;20166;-61
2023/01/22 06:14:47;;;;;;;9.80;5.38;;;;;;;-142.75;100.00;79951.59;5021318;28;20135;-64
2023/01/22 06:17:13;;;;;;;11.98;5.68;;;;;;;-142.75;100.00;79973.25;5038296;28;20745;-64
2023/01/22 06:19:38;;;;;;;12.45;6.00;;;;;;;-142.75;100.00;79961.44;5020954;28;20032;-64
2023/01/22 06:22:04;;;;;;;9.65;5.03;;;;;;;-142.75;100.00;79941.75;5020546;28;20480;-65
2023/01/22 06:24:29;;;;;;;11.77;5.60;;;;;;;-142.75;100.00;79943.72;5020704;28;20490;-64
2023/01/22 06:26:55;;;;;;;11.50;5.72;;;;;;;-142.75;100.00;79953.56;5020441;28;20479;-64
2023/01/22 06:29:20;;;;;;;8.82;5.07;;;;;;;-142.75;100.00;79996.91;5038661;28;20027;-65
2023/01/22 06:31:45;;;;;;;9.57;5.05;;;;;;;-142.75;100.00;79992.97;5038745;28;20029;-62
2023/01/22 06:34:11;;;;;;;12.05;5.95;;;;;;;-142.75;100.00;79989.03;5038238;28;20391;-64
2023/01/22 06:36:36;;;;;;;10.70;5.32;;;;;;;-142.75;100.00;79983.13;5028612;28;20113;-61
2023/01/22 06:39:02;;;;;;;10.70;5.78;;;;;;;-142.75;100.00;79979.16;5000882;28;20025;-65
2023/01/22 06:41:27;;;;;;;11.73;5.75;;;;;;;-142.75;100.00;79953.56;5001039;28;20033;-64
2023/01/22 06:43:52;;;;;;;11.00;5.18;;;;;;;-142.75;100.00;79943.72;5018877;28;20059;-64
2023/01/22 06:46:18;;;;;;;13.48;6.70;;;;;;;-142.75;100.00;79945.69;5034848;28;20453;-64
2023/01/22 06:48:45;;;;;;;;;;;;;;;-142.75;100.00;79945.69;5038099;28;20021;-64
2023/01/22 06:51:10;;;;;;;12.70;5.33;;;;;;;-142.75;100.00;79961.44;5038606;28;19916;-63
2023/01/22 06:53:35;;;;;;;12.27;6.15;;;;;;;-142.75;100.00;79943.72;5038471;28;20499;-65
2023/01/22 06:56:01;;;;;;;10.85;5.45;;;;;;;-142.75;100.00;79949.63;5020592;28;20135;-65
2023/01/22 06:58:27;;;;;;;11.82;5.80;;;;;;;-142.75;100.00;79949.63;5038447;28;20091;-63
2023/01/22 07:00:52;;;;;;;12.27;5.45;;;;;;;-142.75;100.00;79951.59;5042161;28;20021;-65
2023/01/22 07:03:17;;;;;;;10.65;5.28;;;;;;;-142.75;100.00;79937.81;5041839;28;20738;-64
2023/01/22 07:05:43;;;;;;;12.80;5.47;;;;;;;-142.75;100.00;79949.63;5041760;28;20363;-64
2023/01/22 07:08:13;;;;;;;23.92;6.45;;;;;;;-142.75;100.00;79969.31;5041012;28;20776;-64
2023/01/22 07:10:38;;;;;;;9.47;4.90;;;;;;;-142.75;100.00;79981.16;5041666;28;20027;-64
2023/01/22 07:13:05;;;;;;;10.88;4.95;;;;;;;-142.75;100.00;79963.41;5024779;28;20051;-64
2023/01/22 07:15:31;;;;;;;11.37;5.67;;;;;;;-142.75;100.00;79961.44;5041647;28;20053;-64
2023/01/22 07:17:56;;;;;;;13.18;5.43;;;;;;;-142.75;100.00;79989.03;5041033;28;20650;-63
2023/01/22 07:20:22;;;;;;;14.27;6.18;;;;;;;-142.75;100.00;79977.19;5041887;28;20545;-65
2023/01/22 07:22:48;;;;;;;10.65;5.35;;;;;;;-142.75;100.00;79967.34;5041543;28;20029;-66
2023/01/22 07:25:14;;;;;;;13.98;5.13;;;;;;;-142.75;100.00;79963.41;5041452;28;20036;-65
2023/01/22 07:27:39;;;;;;;15.68;5.38;;;;;;;-142.75;100.00;79992.97;5040771;28;20882;-64
2023/01/22 07:30:06;;;;;;;16.30;5.53;;;;;;;-142.75;100.00;79969.31;5023163;28;20035;-65
2023/01/22 07:32:31;;;;;;;10.80;5.60;;;;;;;-142.75;100.00;79996.91;5023448;28;20087;-65
2023/01/22 07:34:57;;;;;;;9.57;5.50;;;;;;;-142.75;100.00;79996.91;5041200;28;20071;-62
2023/01/22 07:37:22;;;;;;;11.95;5.90;;;;;;;-142.75;100.00;80010.69;5022378;28;20104;-63
2023/01/22 07:39:47;;;;;;;10.07;4.85;;;;;;;-142.75;100.00;80000.84;5041581;28;20474;-64
2023/01/22 07:42:13;;;;;;;11.35;5.32;;;;;;;-142.75;100.00;79998.88;5040898;28;20044;-66
2023/01/22 07:44:41;;;;;;;12.80;5.03;;;;;;;-142.75;100.00;80004.78;5040995;28;20024;-65
2023/01/22 07:47:07;;;;;;;11.43;5.00;;;;;;;-142.75;100.00;79996.91;5040341;28;20037;-64
2023/01/22 07:49:32;;;;;;;12.10;5.80;;;;;;;-142.75;100.00;80008.72;5041149;28;20770;-64
2023/01/22 07:51:58;;;;;;;10.40;4.53;;;;;;;-142.75;100.00;80008.72;5022637;28;20463;-64
2023/01/22 07:54:23;;;;;;;7.93;5.10;;;;;;;-142.75;100.00;80014.63;5040914;28;20554;-64
2023/01/22 07:56:48;;;;;;;10.90;4.85;;;;;;;-142.75;100.00;80002.81;5040648;28;20029;-64
2023/01/22 07:59:14;;;;;;;8.38;4.45;;;;;;;-142.75;100.00;79975.22;5040604;28;20029;-64
2023/01/22 08:01:39;;;;;;;8.85;4.47;;;;;;;-142.75;100.00;79983.13;5041139;28;20028;-64
2023/01/22 08:04:05;;;;;;;13.93;4.55;;;;;;;-142.75;100.00;79959.47;5040586;28;20025;-65
2023/01/22 08:06:30;;;;;;;10.05;4.85;;;;;;;-142.75;100.00;79949.63;5022542;28;20494;-64
2023/01/22 08:08:58;;;;;;;8.68;4.32;;;;;;;-142.75;100.00;79983.13;5039907;28;20029;-62
2023/01/22 08:11:24;;;;;;;11.70;4.63;;;;;;;-142.75;100.00;80008.72;5040324;28;20475;-64
2023/01/22 08:13:49;;;;;;;8.55;4.80;;;;;;;-142.75;100.00;79996.91;5040853;28;20040;-64
2023/01/22 08:16:14;;;;;;;9.70;4.55;;;;;;;-142.75;100.00;80008.72;5040471;28;21013;-61
2023/01/22 08:18:40;;;;;;;12.27;4.22;;;;;;;-142.75;100.00;80032.38;5039759;28;20040;-65
2023/01/22 08:21:05;;;;;;;10.10;4.40;;;;;;;-142.75;100.00;80024.50;5040334;28;20028;-64
2023/01/22 08:23:30;;;;;;;6.45;3.78;;;;;;;-142.75;100.00;80018.56;5040375;28;20025;-65
2023/01/22 08:26:00;;;;;;;8.82;4.38;;;;;;;-142.75;100.00;80012.66;5040145;28;20926;-62
2023/01/22 08:28:26;;;;;;;8.97;4.00;;;;;;;-142.75;100.00;80012.66;5039419;28;20128;-65
2023/01/22 08:30:56;;;;;;;10.00;5.03;;;;;;;-142.75;100.00;79989.03;5040758;28;20029;-64
2023/01/22 08:33:21;;;;;;;11.67;4.13;;;;;;;-142.75;100.00;80002.81;5039958;28;20473;-63
2023/01/22 08:35:47;;;;;;;10.57;4.63;;;;;;;-142.75;100.00;79998.88;5040391;28;20017;-66
2023/01/22 08:38:12;;;;;;;9.43;4.65;;;;;;;-142.75;100.00;79989.03;5039360;28;20021;-64
2023/01/22 08:40:38;;;;;;;10.35;4.53;;;;;;;-142.75;100.00;79987.06;5040071;28;20028;-63
2023/01/22 08:43:03;;;;;;;8.68;4.65;;;;;;;-142.75;100.00;79975.22;5039779;28;20534;-62
2023/01/22 08:45:28;;;;;;;10.48;4.70;;;;;;;-142.75;100.00;79967.34;5039976;28;20035;-65
2023/01/22 08:47:58;;;;;;;8.43;5.03;;;;;;;-142.75;100.00;79977.19;5021565;28;20031;-65
2023/01/22 08:50:24;;;;;;;8.10;4.37;;;;;;;-142.75;100.00;79973.25;5039491;28;20024;-65
2023/01/22 08:52:49;;;;;;;10.10;4.70;;;;;;;-142.75;100.00;79981.16;5030886;28;20671;-65
2023/01/22 08:55:15;;;;;;;14.57;4.90;;;;;;;-142.75;100.00;79998.88;5019794;28;20028;-64
2023/01/22 08:57:40;;;;;;;9.32;4.18;;;;;;;-142.75;100.00;79992.97;5018280;28;20029;-64
2023/01/22 09:00:06;;;;;;;8.68;5.25;;;;;;;-142.75;100.00;80018.56;5020847;28;20558;-65
2023/01/22 09:02:31;;;;;;;7.07;4.10;;;;;;;-142.75;100.00;80040.25;5019675;28;20525;-63
2023/01/22 09:04:56;;;;;;;8.23;4.38;;;;;;;-142.75;100.00;79996.91;5019471;28;20562;-61
2023/01/22 09:07:22;;;;;;;6.80;3.83;;;;;;;-142.75;100.00;80026.47;5018955;28;20026;-63
2023/01/22 09:09:47;;;;;;;12.18;4.32;;;;;;;-142.75;100.00;80016.59;5020098;28;20091;-66
2023/01/22 09:12:12;;;;;;;8.80;4.03;;;;;;;-142.75;100.00;80016.59;5019583;28;21519;-64
2023/01/22 09:14:38;;;;;;;7.55;4.20;;;;;;;-142.75;100.00;80050.09;5019589;28;20017;-65
2023/01/22 09:17:03;;;;;;;8.35;4.20;;;;;;;-142.75;100.00;80063.88;5001016;28;20029;-64
2023/01/22 09:19:28;;;;;;;7.50;3.83;;;;;;;-142.75;100.00;80048.13;5019479;28;20032;-63
2023/01/22 09:21:54;;;;;;;9.35;4.55;;;;;;;-142.75;100.00;80028.44;5019206;28;20083;-64
2023/01/22 09:24:19;;;;;;;8.60;4.57;;;;;;;-142.75;100.00;80040.25;5001578;28;20041;-65
2023/01/22 09:26:44;;;;;;;14.75;4.82;;;;;;;-142.75;100.00;80050.09;5018748;28;20028;-67
2023/01/22 09:29:09;;;;;;;10.00;4.00;;;;;;;-142.75;100.00;80048.13;5019534;28;20060;-65
2023/01/22 09:31:36;;;;;;;11.82;4.55;;;;;;;-142.75;100.00;80046.16;5019286;28;20116;-65
2023/01/22 09:34:02;;;;;;;;;;;;;;;-142.75;100.00;80050.09;5019836;28;20024;-64
2023/01/22 09:36:27;;;;;;;9.87;4.23;;;;;;;-142.75;100.00;80040.25;5019033;28;19913;-64
2023/01/22 09:38:53;;;;;;;8.50;4.43;;;;;;;-142.75;100.00;80044.19;5019001;28;20028;-64
2023/01/22 09:41:36;;;;;;;8.45;4.78;;;;;;;-142.75;100.00;80020.53;5001330;28;20752;-64
2023/01/22 09:44:11;;;;;;;7.27;4.13;;;;;;;-142.75;100.00;80048.13;5018987;28;20040;-65
2023/01/22 09:46:46;;;;;;;7.53;4.33;;;;;;;-142.75;100.00;80036.31;5018231;28;20032;-62
2023/01/22 09:49:17;;;;;;;6.87;4.53;;;;;;;-142.75;100.00;80065.84;5019060;28;20823;-64
2023/01/22 09:51:51;;;;;;;9.53;4.33;;;;;;;-142.75;100.00;80042.22;5018811;28;20394;-63
2023/01/22 09:54:16;;;;;;;7.77;4.73;;;;;;;-142.75;100.00;80038.28;5019157;28;20033;-64
2023/01/22 09:56:44;;;;;;;12.55;5.07;;;;;;;-142.75;100.00;80030.41;5022882;28;20391;-65
2023/01/22 09:59:38;;;;;;;12.77;5.07;;;;;;;-142.75;100.00;80022.50;5019220;28;20078;-65
2023/01/22 10:02:20;;;;;;;7.40;4.80;;;;;;;-142.75;100.00;79991.00;5033272;28;20041;-66
2023/01/22 10:04:49;;;;;;;6.43;4.50;;;;;;;-142.75;100.00;79971.28;5039454;28;20033;-65
2023/01/22 10:07:21;;;;;;;11.93;4.97;;;;;;;-142.75;100.00;79959.47;5020385;28;20025;-63
2023/01/22 10:09:53;;;;;;;8.93;4.93;;;;;;;-142.75;100.00;79945.69;5025027;28;20029;-65
2023/01/22 10:12:18;;;;;;;12.37;5.07;;;;;;;-142.75;100.00;79920.06;5018515;28;20031;-66
2023/01/22 10:14:44;;;;;;;11.02;5.15;;;;;;;-142.75;100.00;79929.91;5001076;28;20017;-65
2023/01/22 10:17:23;;;;;;;7.75;4.32;;;;;;;-142.75;100.00;79906.28;5017622;28;20056;-65
2023/01/22 10:19:59;;;;;;;6.83;3.97;;;;;;;-142.75;100.00;79920.06;5018203;28;20555;-65
2023/01/22 10:22:26;;;;;;;9.30;4.30;;;;;;;-142.75;100.00;79906.28;5018439;28;20033;-66
2023/01/22 10:24:52;;;;;;;9.47;4.67;;;;;;;-142.75;100.00;79906.28;5001380;28;20693;-64
2023/01/22 10:27:21;;;;;;;8.60;5.10;;;;;;;-142.75;100.00;79878.69;5017703;28;20091;-65
2023/01/22 10:30:05;;;;;;;7.67;4.20;;;;;;;-142.75;100.00;79892.50;5018225;28;20108;-65
2023/01/22 10:32:31;;;;;;;9.90;4.53;;;;;;;-142.75;100.00;79878.69;5001798;28;20030;-65
2023/01/22 10:34:58;;;;;;;10.48;5.10;;;;;;;-142.75;100.00;79837.31;5022446;28;20056;-63
2023/01/22 10:37:24;;;;;;;12.57;4.57;;;;;;;-142.75;100.00;79843.22;5003760;28;20513;-63
2023/01/22 10:39:49;;;;;;;7.90;4.32;;;;;;;-142.75;100.00;79807.78;5022632;28;20029;-65
2023/01/22 10:42:21;;;;;;;10.00;4.60;;;;;;;-142.75;100.00;79732.91;5022531;28;20021;-65
2023/01/22 10:44:47;;;;;;;10.70;4.43;;;;;;;-142.75;100.00;79713.22;5022002;28;20033;-65
2023/01/22 10:47:21;;;;;;;10.80;4.30;;;;;;;-142.75;100.00;79744.72;5021482;28;20487;-64
2023/01/22 10:49:48;;;;;;;10.67;4.27;;;;;;;-142.75;100.00;79774.28;5004304;28;20038;-66
2023/01/22 10:52:23;;;;;;;7.20;3.87;;;;;;;-142.75;100.00;79784.13;5007344;28;20502;-60
2023/01/22 10:54:58;;;;;;;7.53;3.93;;;;;;;-142.75;100.00;79821.56;5032610;28;20741;-61
2023/01/22 10:57:33;;;;;;;8.23;3.90;;;;;;;-142.75;100.00;79831.41;5026835;28;20033;-62
2023/01/22 11:00:14;;;;;;;7.70;4.30;;;;;;;-142.75;100.00;79835.34;5023235;28;20721;-62
2023/01/22 11:02:42;;;;;;;5.90;3.23;;;;;;;-142.75;100.00;79853.09;5017203;28;20032;-62
2023/01/22 11:05:18;;;;;;;8.80;4.20;;;;;;;-142.75;100.00;79859.00;5021927;28;20024;-62
2023/01/22 11:07:46;;;;;;;6.03;3.20;;;;;;;-142.75;100.00;79876.72;5017485;28;20048;-63
2023/01/22 11:10:24;;;;;;;8.07;3.80;;;;;;;-142.75;100.00;79853.09;5018694;28;20027;-62